D/T METAR WX W/DIR W/SPE G/SPE TEMP DEWP
16/01/19 02:50 EGOV 160250Z AUTO 21025KT 9000 HZ BKN013/// SCT050/// 10/08 Q1004 HZ SSW (210°) 28.8mph 10°C 8°C
16/01/19 01:50 EGOV 160150Z AUTO 21024KT 6000 HZ FEW015/// SCT028/// BKN038/// 09/08 Q1005 HZ SSW (210°) 27.6mph 9°C 8°C
16/01/19 00:50 EGOV 160050Z AUTO 21023KT 9999 FEW017/// BKN042/// 10/08 Q1006 SSW (210°) 26.5mph 10°C 8°C
15/01/19 23:50 EGOV 152350Z AUTO 21021KT 9999 BKN033/// 09/08 Q1007 SSW (210°) 24.2mph 9°C 8°C
15/01/19 22:50 EGOV 152250Z AUTO 22019KT 9999 FEW014/// BKN033/// 10/08 Q1007 SW (220°) 21.9mph 10°C 8°C
15/01/19 21:50 EGOV 152150Z AUTO 21019KT 9999 FEW016/// SCT043/// 09/08 Q1008 SSW (210°) 21.9mph 9°C 8°C
15/01/19 20:50 EGOV 152050Z AUTO 21020KT 9999 FEW010/// SCT036/// 09/08 Q1009 SSW (210°) 23.0mph 9°C 8°C
15/01/19 19:50 EGOV 151950Z 21023KT 9999 FEW012 SCT030 09/08 Q1010 BLU SSW (210°) 26.5mph 9°C 8°C
15/01/19 18:50 EGOV 151850Z 21020KT 9999 FEW011 SCT028 BKN130 09/08 Q1011 BLU SSW (210°) 23.0mph 9°C 8°C
15/01/19 17:50 EGOV 151750Z 21018KT 9999 FEW010 BKN029 BKN150 09/08 Q1012 BLU TEMPO SCT015 WHT SSW (210°) 20.7mph 9°C 8°C
15/01/19 16:50 EGOV 151650Z 22016KT 9999 FEW012 BKN025 09/08 Q1012 BLU BECMG 21018G28KT BLU SW (220°) 18.4mph 9°C 8°C
15/01/19 15:50 EGOV 151550Z 21017KT 9999 FEW020 BKN044 09/08 Q1013 BLU BECMG 21018G28KT BLU SSW (210°) 19.6mph 9°C 8°C
15/01/19 14:50 EGOV 151450Z 22017KT 9999 FEW012 SCT250 09/07 Q1014 BLU BECMG 21018G28KT BLU SW (220°) 19.6mph 9°C 7°C
15/01/19 13:50 EGOV 151350Z 22016KT 9999 FEW016 BKN300 10/07 Q1014 BLU NOSIG SW (220°) 18.4mph 10°C 7°C
15/01/19 12:50 EGOV 151250Z 22017KT 9999 FEW018 BKN200 10/07 Q1015 BLU NOSIG SW (220°) 19.6mph 10°C 7°C
15/01/19 11:50 EGOV 151150Z 23016KT 9999 FEW018 BKN044 10/07 Q1016 BLU NOSIG SW (230°) 18.4mph 10°C 7°C
15/01/19 10:50 EGOV 151050Z 23016KT 9999 BKN046 09/07 Q1017 BLU NOSIG SW (230°) 18.4mph 9°C 7°C
15/01/19 09:50 EGOV 150950Z 23014KT 9999 BKN044 09/07 Q1017 BLU NOSIG SW (230°) 16.1mph 9°C 7°C
15/01/19 08:50 EGOV 150850Z 24013KT 9999 BKN044 09/07 Q1017 BLU NOSIG WSW (240°) 15.0mph 9°C 7°C
15/01/19 07:50 EGOV 150750Z 24016KT 9999 BKN049 09/07 Q1017 BLU NOSIG WSW (240°) 18.4mph 9°C 7°C
15/01/19 06:50 EGOV 150650Z 24015KT 9999 FEW009 BKN050 09/07 Q1017 BLU NOSIG WSW (240°) 17.3mph 9°C 7°C
15/01/19 05:50 EGOV 150550Z AUTO 24017KT 9999 OVC047/// 09/07 Q1018 WSW (240°) 19.6mph 9°C 7°C
15/01/19 04:50 EGOV 150450Z AUTO 23017KT 9999 OVC050/// 09/08 Q1018 SW (230°) 19.6mph 9°C 8°C
15/01/19 03:50 EGOV 150350Z AUTO 23019KT 9999 OVC048/// 09/07 Q1019 SW (230°) 21.9mph 9°C 7°C
15/01/19 02:50 EGOV 150250Z AUTO 23017KT 9999 BKN047/// 09/07 Q1020 SW (230°) 19.6mph 9°C 7°C
15/01/19 01:50 EGOV 150150Z AUTO 23017KT 9999 FEW033/// BKN040/// 09/07 Q1020 SW (230°) 19.6mph 9°C 7°C
15/01/19 00:50 EGOV 150050Z AUTO 24019KT 9999 FEW019/// BKN023/// BKN031/// 09/07 Q1021 WSW (240°) 21.9mph 9°C 7°C
14/01/19 23:50 EGOV 142350Z AUTO 23017KT 9999 BKN018/// 09/07 Q1021 SW (230°) 19.6mph 9°C 7°C
14/01/19 22:50 EGOV 142250Z AUTO 24017KT 9999 SCT020/// BKN027/// 09/07 Q1021 WSW (240°) 19.6mph 9°C 7°C
14/01/19 21:50 EGOV 142150Z AUTO 23015KT 9999 BKN032/// 09/07 Q1021 SW (230°) 17.3mph 9°C 7°C
14/01/19 20:50 EGOV 142050Z 24014KT 9999 BKN021 09/06 Q1022 WHT WSW (240°) 16.1mph 9°C 6°C
14/01/19 19:50 EGOV 141950Z 23013KT 9999 BKN025 09/05 Q1022 BLU SW (230°) 15.0mph 9°C 5°C
14/01/19 18:50 EGOV 141850Z 26011KT 9999 BKN026 BKN060 09/04 Q1022 BLU W (260°) 12.7mph 9°C 4°C
14/01/19 17:50 EGOV 141750Z 26010KT 9999 FEW020 SCT036 BKN060 08/03 Q1022 BLU TEMPO SCT020 WHT W (260°) 11.5mph 8°C 3°C
14/01/19 16:50 EGOV 141650Z 27009KT 9999 FEW020 SCT032 BKN060 08/03 Q1022 BLU TEMPO SCT020 WHT W (270°) 10.4mph 8°C 3°C
14/01/19 15:50 EGOV 141550Z 28008KT 9999 FEW020 SCT036 BKN044 09/03 Q1022 BLU TEMPO SCT020 WHT W (280°) 9.2mph 9°C 3°C
14/01/19 14:50 EGOV 141450Z 29014KT 9999 FEW020 BKN042 09/04 Q1023 BLU TEMPO SCT018 WHT WNW (290°) 16.1mph 9°C 4°C
14/01/19 13:50 EGOV 141350Z 29013KT 9999 FEW020 09/05 Q1023 BLU TEMPO SCT020 WHT WNW (290°) 15.0mph 9°C 5°C
14/01/19 12:50 EGOV 141250Z 30010KT 9999 FEW020 09/05 Q1023 BLU TEMPO SCT020 WHT WNW (300°) 11.5mph 9°C 5°C
14/01/19 11:50 EGOV 141150Z 29013KT 9999 FEW019 09/05 Q1022 BLU NOSIG WNW (290°) 15.0mph 9°C 5°C
14/01/19 10:50 EGOV 141050Z 30011KT 9999 FEW018 08/05 Q1023 BLU TEMPO SCT018 WHT WNW (300°) 12.7mph 8°C 5°C
14/01/19 09:50 EGOV 140950Z 29008KT 9999 FEW015 BKN040 08/05 Q1023 BLU TEMPO SCT015 WHT WNW (290°) 9.2mph 8°C 5°C
14/01/19 08:50 EGOV 140850Z 30011KT 9999 FEW016 SCT046 08/04 Q1022 BLU TEMPO SCT016 WHT WNW (300°) 12.7mph 8°C 4°C
14/01/19 07:50 EGOV 140750Z 30011KT 9999 BKN043 08/04 Q1021 BLU NOSIG WNW (300°) 12.7mph 8°C 4°C
14/01/19 06:50 EGOV 140650Z 30011KT 9999 BKN046 08/04 Q1021 BLU NOSIG WNW (300°) 12.7mph 8°C 4°C
14/01/19 05:50 EGOV 140550Z AUTO 29012KT 9999 BKN043/// 08/04 Q1020 WNW (290°) 13.8mph 8°C 4°C
14/01/19 04:50 EGOV 140450Z AUTO 30014KT 9999 SCT047/// 08/04 Q1020 WNW (300°) 16.1mph 8°C 4°C
14/01/19 03:50 EGOV 140350Z AUTO 30011KT 9999 FEW031/// SCT045/// 08/04 Q1020 WNW (300°) 12.7mph 8°C 4°C
14/01/19 02:50 EGOV 140250Z AUTO 29013KT 9999 FEW031/// BKN038/// 08/04 Q1020 RERA WNW (290°) 15.0mph 8°C 4°C
14/01/19 01:50 EGOV 140150Z AUTO 29016KT 9999 BKN037/// 09/04 Q1019 WNW (290°) 18.4mph 9°C 4°C
14/01/19 00:50 EGOV 140050Z AUTO 30015KT 9999 FEW038/// 08/04 Q1019 WNW (300°) 17.3mph 8°C 4°C
13/01/19 23:50 EGOV 132350Z AUTO 30011KT 9999 FEW030/// SCT050/// 08/04 Q1019 WNW (300°) 12.7mph 8°C 4°C
13/01/19 22:50 EGOV 132250Z AUTO 31015KT 9999 SCT029/// 08/04 Q1018 NW (310°) 17.3mph 8°C 4°C
13/01/19 21:50 EGOV 132150Z AUTO 31016KT 9999 FEW030/// SCT045/// 09/04 Q1017 NW (310°) 18.4mph 9°C 4°C
13/01/19 20:50 EGOV 132050Z AUTO 30016KT 9999 FEW025/// BKN046/// 09/04 Q1017 WNW (300°) 18.4mph 9°C 4°C
13/01/19 19:50 EGOV 131950Z AUTO 30014KT 9999 FEW027/// BKN042/// 09/05 Q1016 WNW (300°) 16.1mph 9°C 5°C
13/01/19 18:50 EGOV 131850Z AUTO 29014KT 9999 BKN046/// 09/05 Q1016 WNW (290°) 16.1mph 9°C 5°C
13/01/19 17:50 EGOV 131750Z AUTO 31018KT 9999 SCT045/// 10/04 Q1015 NW (310°) 20.7mph 10°C 4°C
13/01/19 16:50 EGOV 131650Z AUTO 30018KT 9999 BKN050/// 10/05 Q1015 WNW (300°) 20.7mph 10°C 5°C
13/01/19 15:50 EGOV 131550Z AUTO 29018KT 9999 FEW027/// BKN045/// 10/07 Q1014 WNW (290°) 20.7mph 10°C 7°C
13/01/19 14:50 EGOV 131450Z AUTO 28017KT 9999 FEW037/// BKN047/// 11/08 Q1014 RERA W (280°) 19.6mph 11°C 8°C
13/01/19 13:50 EGOV 131350Z AUTO 26017KT 9999 -RADZ FEW008/// BKN034/// 10/09 Q1014 -RA -DZ W (260°) 19.6mph 10°C 9°C
13/01/19 12:50 EGOV 131250Z AUTO 27019KT 9999 FEW011/// BKN034/// 11/09 Q1015 W (270°) 21.9mph 11°C 9°C
13/01/19 11:50 EGOV 131150Z AUTO 26021G31KT 9999 BKN013/// SCT020/// 11/09 Q1015 W (260°) 24.2mph 35.7mph 11°C 9°C
13/01/19 10:50 EGOV 131050Z AUTO 26020G31KT 9999 FEW014/// SCT043/// BKN050/// 10/08 Q1015 W (260°) 23.0mph 35.7mph 10°C 8°C
13/01/19 09:50 EGOV 130950Z AUTO 27021KT 9999 BKN013/// SCT043/// 10/08 Q1016 W (270°) 24.2mph 10°C 8°C
13/01/19 08:50 EGOV 130850Z AUTO 27020KT 9999 BKN070/// 10/08 Q1016 W (270°) 23.0mph 10°C 8°C
13/01/19 07:50 EGOV 130750Z AUTO 27017KT 9999 FEW020/// SCT050/// BKN120/// 10/07 Q1016 W (270°) 19.6mph 10°C 7°C
13/01/19 06:50 EGOV 130650Z AUTO 26021KT 9999 FEW060/// OVC110/// 10/08 Q1016 W (260°) 24.2mph 10°C 8°C
13/01/19 05:50 EGOV 130550Z AUTO 27012KT 9999 SCT014/// BKN100/// 09/07 Q1017 RERA W (270°) 13.8mph 9°C 7°C
13/01/19 04:50 EGOV 130450Z AUTO 26006KT 9999 BKN015/// SCT090/// 10/07 Q1018 W (260°) 6.9mph 10°C 7°C
13/01/19 03:50 EGOV 130350Z AUTO 27016KT 9999 SCT016/// OVC140/// 10/07 Q1018 W (270°) 18.4mph 10°C 7°C
13/01/19 02:50 EGOV 130250Z AUTO 28019KT 9999 SCT015/// BKN130/// 10/07 Q1019 W (280°) 21.9mph 10°C 7°C
13/01/19 01:50 EGOV 130150Z AUTO 28017KT 9999 BKN014/// 10/08 Q1019 W (280°) 19.6mph 10°C 8°C
13/01/19 00:50 EGOV 130050Z AUTO 27015KT 9999 OVC011/// 10/08 Q1020 W (270°) 17.3mph 10°C 8°C
12/01/19 23:50 EGOV 122350Z AUTO 28016KT 9999 BKN012/// BKN130/// 10/09 Q1021 W (280°) 18.4mph 10°C 9°C
12/01/19 22:50 EGOV 122250Z AUTO 27017KT 9999 BKN012/// SCT018/// BKN140/// 10/09 Q1021 W (270°) 19.6mph 10°C 9°C
12/01/19 21:50 EGOV 122150Z AUTO 27019KT 9999 BKN016/// BKN023/// 10/08 Q1022 W (270°) 21.9mph 10°C 8°C
12/01/19 20:50 EGOV 122050Z AUTO 28019KT 9999 BKN023/// OVC160/// 10/08 Q1022 W (280°) 21.9mph 10°C 8°C
12/01/19 19:50 EGOV 121950Z AUTO 27017KT 9999 BKN160/// 10/08 Q1022 W (270°) 19.6mph 10°C 8°C
12/01/19 18:50 EGOV 121850Z AUTO 28017KT 9999 SCT130/// OVC170/// 10/08 Q1022 W (280°) 19.6mph 10°C 8°C
12/01/19 17:50 EGOV 121750Z AUTO 27015KT 9999 OVC130/// 10/09 Q1022 W (270°) 17.3mph 10°C 9°C
12/01/19 16:50 EGOV 121650Z AUTO 27018KT 9999 BKN090/// 10/08 Q1021 W (270°) 20.7mph 10°C 8°C
12/01/19 15:50 EGOV 121550Z AUTO 27016KT 9999 BKN015/// OVC080/// 10/08 Q1022 W (270°) 18.4mph 10°C 8°C
12/01/19 14:50 EGOV 121450Z AUTO 27016KT 9999 BKN014/// 10/08 Q1023 W (270°) 18.4mph 10°C 8°C
12/01/19 13:50 EGOV 121350Z AUTO 27016KT 9999 BKN015/// 09/07 Q1023 W (270°) 18.4mph 9°C 7°C
12/01/19 12:50 EGOV 121250Z AUTO 27016KT 9999 OVC018/// 09/07 Q1024 W (270°) 18.4mph 9°C 7°C
12/01/19 11:50 EGOV 121150Z AUTO 27016KT 9999 FEW018/// BKN024/// 09/07 Q1024 W (270°) 18.4mph 9°C 7°C
12/01/19 10:50 EGOV 121050Z AUTO 28016KT 9999 BKN031/// SCT060/// 09/07 Q1024 W (280°) 18.4mph 9°C 7°C
12/01/19 09:50 EGOV 120950Z AUTO 28017KT 9999 FEW023/// SCT031/// BKN140/// 09/07 Q1024 W (280°) 19.6mph 9°C 7°C
12/01/19 08:50 EGOV 120850Z AUTO 28013KT 9999 BKN025/// BKN140/// 09/07 Q1024 W (280°) 15.0mph 9°C 7°C
12/01/19 07:50 EGOV 120750Z AUTO 28016KT 9999 FEW018/// BKN150/// 09/07 Q1024 W (280°) 18.4mph 9°C 7°C
12/01/19 06:50 EGOV 120650Z AUTO 28012KT 9999 FEW047/// SCT170/// 09/07 Q1024 W (280°) 13.8mph 9°C 7°C
12/01/19 05:50 EGOV 120550Z AUTO 28016KT 7000 HZ FEW008/// SCT012/// BKN026/// 09/08 Q1024 RERA HZ W (280°) 18.4mph 9°C 8°C
12/01/19 04:50 EGOV 120450Z AUTO 25016KT 9999 BKN015/// 10/08 Q1024 WSW (250°) 18.4mph 10°C 8°C
12/01/19 03:50 EGOV 120350Z AUTO 25015KT 9999 BKN015/// BKN050/// 10/08 Q1025 WSW (250°) 17.3mph 10°C 8°C
12/01/19 02:50 EGOV 120250Z AUTO 24012KT 9999 BKN013/// BKN050/// 10/08 Q1025 WSW (240°) 13.8mph 10°C 8°C
12/01/19 01:50 EGOV 120150Z AUTO 25013KT 9999 OVC014/// 10/08 Q1027 WSW (250°) 15.0mph 10°C 8°C
12/01/19 00:50 EGOV 120050Z AUTO 24011KT 9999 BKN014/// 10/08 Q1027 WSW (240°) 12.7mph 10°C 8°C
11/01/19 23:50 EGOV 112350Z AUTO 26012KT 9999 OVC013/// 10/08 Q1028 W (260°) 13.8mph 10°C 8°C
11/01/19 22:50 EGOV 112250Z AUTO 25012KT 9999 BKN012/// SCT021/// 10/08 Q1028 WSW (250°) 13.8mph 10°C 8°C
11/01/19 21:50 EGOV 112150Z AUTO 23010KT 9999 BKN023/// 09/08 Q1029 SW (230°) 11.5mph 9°C 8°C
11/01/19 20:50 EGOV 112050Z AUTO 24010KT 9999 FEW015/// BKN027/// 09/08 Q1030 RERA WSW (240°) 11.5mph 9°C 8°C
11/01/19 19:50 EGOV 111950Z AUTO 27008KT 9999 FEW027/// BKN033/// 09/07 Q1030 W (270°) 9.2mph 9°C 7°C
11/01/19 18:50 EGOV 111850Z AUTO 26008KT 9999 BKN031/// 09/07 Q1031 W (260°) 9.2mph 9°C 7°C
11/01/19 17:50 EGOV 111750Z AUTO 27009KT 9999 OVC035/// 10/07 Q1031 W (270°) 10.4mph 10°C 7°C
11/01/19 16:50 EGOV 111650Z 27010KT 9999 FEW013 OVC040 09/08 Q1031 BLU NOSIG W (270°) 11.5mph 9°C 8°C
11/01/19 15:50 EGOV 111550Z 27007KT 9999 OVC039 09/07 Q1031 BLU NOSIG W (270°) 8.1mph 9°C 7°C
11/01/19 14:50 EGOV 111450Z 27004KT 9999 OVC038 09/08 Q1031 BLU NOSIG W (270°) 4.6mph 9°C 8°C
11/01/19 13:50 EGOV 111350Z 26005KT 9999 OVC039 10/08 Q1032 BLU NOSIG W (260°) 5.8mph 10°C 8°C
11/01/19 12:50 EGOV 111250Z 28004KT 9999 OVC038 10/08 Q1032 BLU NOSIG W (280°) 4.6mph 10°C 8°C
11/01/19 11:50 EGOV 111150Z 31004KT 9999 BKN042 10/07 Q1033 BLU NOSIG NW (310°) 4.6mph 10°C 7°C
11/01/19 10:50 EGOV 111050Z 35004KT 9999 BKN040 09/07 Q1033 BLU NOSIG N (350°) 4.6mph 9°C 7°C
11/01/19 09:50 EGOV 110950Z 34006KT 9999 BKN041 09/07 Q1033 BLU NOSIG NNW (340°) 6.9mph 9°C 7°C
11/01/19 08:50 EGOV 110850Z 34004KT 9999 FEW021 OVC042 08/06 Q1033 BLU NOSIG NNW (340°) 4.6mph 8°C 6°C
11/01/19 07:50 EGOV 110750Z 34011KT 9999 FEW021 OVC035 09/06 Q1033 BLU NOSIG NNW (340°) 12.7mph 9°C 6°C
11/01/19 06:50 EGOV 110650Z 33007KT 9999 OVC040 09/07 Q1032 BLU NOSIG NNW (330°) 8.1mph 9°C 7°C
11/01/19 05:50 EGOV 110550Z AUTO 33007KT 9999 BKN041/// 08/06 Q1032 NNW (330°) 8.1mph 8°C 6°C
11/01/19 04:50 EGOV 110450Z AUTO 34011KT 9999 FEW034/// BKN039/// 08/07 Q1032 NNW (340°) 12.7mph 8°C 7°C
11/01/19 03:50 EGOV 110350Z AUTO 34009KT 9999 BKN042/// 09/07 Q1033 NNW (340°) 10.4mph 9°C 7°C
11/01/19 02:50 EGOV 110250Z AUTO 34006KT 9999 FEW016/// BKN041/// 08/07 Q1032 RERA NNW (340°) 6.9mph 8°C 7°C
11/01/19 01:50 EGOV 110150Z AUTO 34006KT 9999 SCT044/// BKN050/// 08/07 Q1032 NNW (340°) 6.9mph 8°C 7°C
11/01/19 00:50 EGOV 110050Z AUTO 33007KT 9999 FEW043/// BKN050/// 08/06 Q1032 RERA NNW (330°) 8.1mph 8°C 6°C
10/01/19 23:50 EGOV 102350Z AUTO 35009KT 9999 FEW029/// SCT033/// BKN050/// 08/06 Q1032 RERA N (350°) 10.4mph 8°C 6°C
10/01/19 22:50 EGOV 102250Z AUTO 33009KT 9999 FEW024/// BKN040/// BKN050/// 09/06 Q1032 RERA NNW (330°) 10.4mph 9°C 6°C
10/01/19 21:50 EGOV 102150Z AUTO 31007KT 9999 FEW043/// BKN050/// 09/06 Q1032 RERA NW (310°) 8.1mph 9°C 6°C
10/01/19 20:50 EGOV 102050Z AUTO 33007KT 9999 -RA FEW044/// BKN050/// 09/06 Q1032 -RA NNW (330°) 8.1mph 9°C 6°C
10/01/19 19:50 EGOV 101950Z AUTO 35005KT 9999 OVC046/// 09/07 Q1032 N (350°) 5.8mph 9°C 7°C
10/01/19 18:50 EGOV 101850Z 33004KT 9999 OVC047 08/06 Q1032 BLU NNW (330°) 4.6mph 8°C 6°C
10/01/19 17:50 EGOV 101750Z 33004KT 9999 OVC046 09/07 Q1032 BLU NNW (330°) 4.6mph 9°C 7°C
10/01/19 16:50 EGOV 101650Z 32004KT 9999 BKN049 09/08 Q1032 BLU NOSIG NW (320°) 4.6mph 9°C 8°C
10/01/19 15:50 EGOV 101550Z 34004KT 9999 BKN047 09/08 Q1032 BLU NOSIG NNW (340°) 4.6mph 9°C 8°C
10/01/19 14:50 EGOV 101450Z 33005KT 9999 FEW005 BKN047 BKN055 10/09 Q1032 BLU NOSIG NNW (330°) 5.8mph 10°C 9°C
10/01/19 13:50 EGOV 101350Z 34005KT 9999 FEW003 BKN031 BKN043 09/09 Q1032 BLU NOSIG NNW (340°) 5.8mph 9°C 9°C
10/01/19 13:27 EGOV 101327Z 35002KT 9999 7000S FEW003 BKN045 09/08 Q1032 WHT BECMG 9999 BLU N (350°) 2.3mph 9°C 8°C
10/01/19 12:50 EGOV 101250Z 19002KT 5000 -DZ FEW004 BKN005 OVC017 08/08 Q1032 YLO1 BECMG 7000 BR BKN017 WHT -DZ S (190°) 2.3mph 8°C 8°C
10/01/19 11:50 EGOV 101150Z 18006KT 3000 DZ OVC002 08/08 Q1032 AMB BECMG 7000 BR BKN007 GRN DZ S (180°) 6.9mph 8°C 8°C
10/01/19 10:50 EGOV 101050Z 18006KT 5000 -DZ BKN003 07/07 Q1032 YLO2 BECMG 9999 NSW FEW003 BKN009 GRN -DZ S (180°) 6.9mph 7°C 7°C
10/01/19 09:50 EGOV 100950Z 17006KT 4000 BR FEW002 BKN003 OVC004 07/07 Q1032 YLO2 TEMPO 2500 DZ SCT002 AMB BR S (170°) 6.9mph 7°C 7°C
10/01/19 08:50 EGOV 100850Z 18008KT 2500 DZ OVC002 07/06 Q1032 AMB TEMPO 4000 -DZ SCT003 YLO2 DZ S (180°) 9.2mph 7°C 6°C
10/01/19 07:50 EGOV 100750Z 19008KT 3000 DZ SCT002 OVC003 06/06 Q1032 AMB TEMPO 5000 -DZ SCT003 YLO2 DZ S (190°) 9.2mph 6°C 6°C
10/01/19 07:10 EGOV 100710Z 19009KT 5000 -DZ BKN005 OVC007 06/05 Q1032 YLO1 TEMPO 4000 SCT004 YLO2 -DZ S (190°) 10.4mph 6°C 5°C
10/01/19 05:50 EGOV 100550Z AUTO 18008KT 9999 OVC011/// 07/04 Q1031 S (180°) 9.2mph 7°C 4°C
10/01/19 04:50 EGOV 100450Z AUTO 19008KT 9999 OVC016/// 07/04 Q1031 S (190°) 9.2mph 7°C 4°C